Meteo Giornale » Osservazioni meteo Italia » Trieste

ore: 23:55 - Osservazioni Meteo Trieste
Lat. 45° 39' N Lon. 13° 45' E Alt. 8 metri s.l.m.

sereno Europe/Rome

16 °C

Sereno

Temp. 24 Ore

11 °C

21 °C

Nord-Est

7.4 Km/h

Dew point 10 °C

Umidità 67 %

Visibilità  10 Km

Il sole sorge alle ore 06:50

Il sole tramonta alle ore 19:05

Data e Ora Cielo e Fenomeni T °C DP °C Um. % Pres. hPa Vis. km Vento km/h
Ieri h: 23:55 sereno Sereno 16 10 67 1018 10 NE 7.4
Ieri h: 22:55 sereno Sereno 16 10 67 1018 10 E/NE 9.3
Ieri h: 21:55 sereno Sereno 16 10 67 1018 10 NE 7.4
Ieri h: 20:55 sereno Sereno 15 12 82 1018 10 N 5.5
Ieri h: 19:55 sereno Sereno 16 11 72 1018 10 N 3.7
Ieri h: 18:55 sereno Sereno 18 10 59 1017 10 N 0
Ieri h: 17:55 poco_nuvoloso Poco Nuvoloso 20 9 49 1017 10 N 0
Ieri h: 16:55 poco_nuvoloso Poco Nuvoloso 21 9 46 1017 10 N 3.7
Ieri h: 15:55 poco_nuvoloso Poco Nuvoloso 21 9 46 1017 10 N 5.5
Ieri h: 14:55 poco_nuvoloso Poco Nuvoloso 21 8 43 1018 10 N 3.7
Ieri h: 13:55 sereno Sereno 21 5 35 1018 10 N 1.8
Ieri h: 12:55 sereno Sereno 21 4 32 1018 10 N 1.8
Ieri h: 11:55 sereno Sereno 21 8 43 1018 10 N 1.8
Ieri h: 10:55 sereno Sereno 18 9 55 1018 10 N 0
Ieri h: 09:55 sereno Sereno 16 10 67 1018 10 N 0
Ieri h: 08:55 sereno Sereno 14 10 76 1017 10 N 0
Ieri h: 07:55 sereno Sereno 11 9 87 1017 10 N 1.8
Ieri h: 06:55 sereno Sereno 11 8 81 1018 10 N 3.7
Ieri h: 05:55 sereno Sereno 11 8 81 1018 10 N 3.7
Ieri h: 04:55 sereno Sereno 12 8 76 1018 10 N 3.7
Ieri h: 03:55 sereno Sereno 12 8 76 1018 10 N 3.7
Ieri h: 02:55 sereno Sereno 12 6 66 1018 10 N 3.7
Ieri h: 01:55 sereno Sereno 13 5 58 1018 10 N 3.7